Time;durP1;ratioP1;P1;durP2;ratioP2;P2;SDS_P1;SDS_P2;PMS_P1;PMS_P2;Temp;Humidity;BMP_temperature;BMP_pressure;BME280_temperature;BME280_humidity;BME280_pressure;Samples;Min_cycle;Max_cycle;Signal;HPM_P1;HPM_P2
2022/05/14 00:01:08;;;;;;;;;7.00;7.00;;;;;;;;5165929;28;8931;-72
2022/05/14 00:03:39;;;;;;;;;7.20;7.20;;;;;;;;5149821;28;8790;-69
2022/05/14 00:06:13;;;;;;;;;9.80;9.80;;;;;;;;5150231;28;8799;-71
2022/05/14 00:08:45;;;;;;;;;20.60;20.60;;;;;;;;5149546;28;8788;-70
2022/05/14 00:14:07;;;;;;;;;7.40;7.40;;;;;;;;5133704;28;8917;-72
2022/05/14 00:16:38;;;;;;;;;4.60;4.60;;;;;;;;5118396;28;8803;-72
2022/05/14 00:19:09;;;;;;;;;20.20;20.20;;;;;;;;5117335;28;8786;-71
2022/05/14 00:21:41;;;;;;;;;5.40;5.40;;;;;;;;5166781;28;8814;-70
2022/05/14 00:24:12;;;;;;;;;9.20;9.20;;;;;;;;5149228;28;8798;-70
2022/05/14 00:26:43;;;;;;;;;9.80;9.80;;;;;;;;5149102;28;8888;-70
2022/05/14 00:29:15;;;;;;;;;12.00;12.00;;;;;;;;5133257;28;8790;-70
2022/05/14 00:31:46;;;;;;;;;8.60;8.60;;;;;;;;5145074;28;8838;-70
2022/05/14 00:34:17;;;;;;;;;8.50;8.50;;;;;;;;5152971;28;8795;-70
2022/05/14 00:36:48;;;;;;;;;7.60;7.60;;;;;;;;5180560;28;11445;-70
2022/05/14 00:39:19;;;;;;;;;6.40;6.40;;;;;;;;5189582;28;8769;-70
2022/05/14 00:41:50;;;;;;;;;4.50;4.50;;;;;;;;5200624;28;8881;-72
2022/05/14 00:44:21;;;;;;;;;7.60;7.60;;;;;;;;5185188;28;11360;-69
2022/05/14 00:46:59;;;;;;;;;3.00;3.00;;;;;;;;5178273;28;8859;-70
2022/05/14 00:49:32;;;;;;;;;7.00;7.00;;;;;;;;5189251;28;9501;-70
2022/05/14 00:52:03;;;;;;;;;4.00;4.00;;;;;;;;5206837;28;8809;-70
2022/05/14 00:54:38;;;;;;;;;6.00;6.00;;;;;;;;5172965;28;8872;-70
2022/05/14 00:57:12;;;;;;;;;7.40;7.40;;;;;;;;5170947;28;8785;-71
2022/05/14 00:59:43;;;;;;;;;7.20;7.20;;;;;;;;5172680;28;8785;-71
2022/05/14 01:02:15;;;;;;;;;5.00;5.00;;;;;;;;5188848;28;9609;-71
2022/05/14 01:04:47;;;;;;;;;4.80;4.80;;;;;;;;5156554;28;8789;-72
2022/05/14 01:07:19;;;;;;;;;6.80;6.80;;;;;;;;5188638;28;8800;-72
2022/05/14 01:09:55;;;;;;;;;6.60;6.40;;;;;;;;5172427;28;8785;-72
2022/05/14 01:12:28;;;;;;;;;4.80;4.80;;;;;;;;5180143;28;8815;-72
2022/05/14 01:15:11;;;;;;;;;5.20;5.00;;;;;;;;5168572;28;8913;-72
2022/05/14 01:18:00;;;;;;;;;4.00;4.00;;;;;;;;5204740;28;9546;-72
2022/05/14 01:20:35;;;;;;;;;7.40;7.40;;;;;;;;5188867;28;8809;-72
2022/05/14 01:23:22;;;;;;;;;5.00;5.00;;;;;;;;5172938;28;8816;-72
2022/05/14 01:28:51;;;;;;;;;8.80;8.80;;;;;;;;5181279;28;8869;-73
2022/05/14 01:31:23;;;;;;;;;11.00;11.00;;;;;;;;5163891;28;8850;-73
2022/05/14 01:34:08;;;;;;;;;10.00;10.00;;;;;;;;5131929;28;8779;-74
2022/05/14 01:36:41;;;;;;;;;11.40;11.40;;;;;;;;5147580;28;8823;-73
2022/05/14 01:39:12;;;;;;;;;12.80;12.80;;;;;;;;5148163;28;8794;-74
2022/05/14 01:41:43;;;;;;;;;11.40;11.40;;;;;;;;5131917;28;8852;-74
2022/05/14 01:44:15;;;;;;;;;13.00;13.00;;;;;;;;5147663;28;8799;-74
2022/05/14 01:46:46;;;;;;;;;13.20;13.20;;;;;;;;5147718;28;8821;-74
2022/05/14 01:49:17;;;;;;;;;12.80;12.80;;;;;;;;5115690;28;8803;-74
2022/05/14 01:51:48;;;;;;;;;12.40;12.40;;;;;;;;5148103;28;8803;-74
2022/05/14 01:54:21;;;;;;;;;18.80;18.80;;;;;;;;5180058;28;8913;-74
2022/05/14 01:56:53;;;;;;;;;12.00;12.00;;;;;;;;5131574;28;9574;-73
2022/05/14 01:59:25;;;;;;;;;12.60;12.60;;;;;;;;5147498;28;8806;-72
2022/05/14 02:01:57;;;;;;;;;12.00;11.80;;;;;;;;5163322;28;8945;-72
2022/05/14 02:04:28;;;;;;;;;16.20;16.20;;;;;;;;5147375;28;8783;-73
2022/05/14 02:07:01;;;;;;;;;12.80;12.80;;;;;;;;5147387;28;8783;-73
2022/05/14 02:09:32;;;;;;;;;19.20;18.00;;;;;;;;5147280;28;8844;-72
2022/05/14 02:12:04;;;;;;;;;17.60;17.20;;;;;;;;5162924;28;8806;-74
2022/05/14 02:14:38;;;;;;;;;19.60;19.00;;;;;;;;5131525;28;8803;-75
2022/05/14 02:17:09;;;;;;;;;18.60;18.60;;;;;;;;5115454;28;8767;-73
2022/05/14 02:19:40;;;;;;;;;17.80;17.80;;;;;;;;5164145;28;8853;-73
2022/05/14 02:22:11;;;;;;;;;18.80;18.20;;;;;;;;5179561;28;8790;-73
2022/05/14 02:24:43;;;;;;;;;16.40;16.40;;;;;;;;5163324;28;8795;-73
2022/05/14 02:27:15;;;;;;;;;13.20;11.80;;;;;;;;5152391;28;8901;-73
2022/05/14 02:29:53;;;;;;;;;13.40;13.40;;;;;;;;5179428;28;8802;-74
2022/05/14 02:32:26;;;;;;;;;10.60;10.60;;;;;;;;5147185;28;8800;-73
2022/05/14 02:34:58;;;;;;;;;14.20;14.20;;;;;;;;5159978;28;8939;-72
2022/05/14 02:37:30;;;;;;;;;15.80;13.60;;;;;;;;5146942;28;8796;-72
2022/05/14 02:40:01;;;;;;;;;17.80;17.00;;;;;;;;5147012;28;8780;-72
2022/05/14 02:42:33;;;;;;;;;17.00;17.00;;;;;;;;5146926;28;8910;-73
2022/05/14 02:45:05;;;;;;;;;14.80;14.80;;;;;;;;5146655;28;8946;-73
2022/05/14 02:47:36;;;;;;;;;11.80;11.80;;;;;;;;5146845;28;8792;-73
2022/05/14 02:50:08;;;;;;;;;12.00;12.00;;;;;;;;5166373;28;8810;-72
2022/05/14 02:52:39;;;;;;;;;9.20;9.20;;;;;;;;5150343;28;8817;-73
2022/05/14 02:55:10;;;;;;;;;7.20;7.20;;;;;;;;5161817;28;8824;-71
2022/05/14 02:57:42;;;;;;;;;7.20;7.20;;;;;;;;5162979;28;8849;-70
2022/05/14 03:00:16;;;;;;;;;4.50;4.50;;;;;;;;5130462;28;9238;-71
2022/05/14 03:02:48;;;;;;;;;28.00;27.40;;;;;;;;5139331;28;11439;-69
2022/05/14 03:05:20;;;;;;;;;5.00;5.00;;;;;;;;5164354;28;8813;-70
2022/05/14 03:07:52;;;;;;;;;9.00;9.00;;;;;;;;5130672;28;8808;-70
2022/05/14 03:10:23;;;;;;;;;5.50;5.50;;;;;;;;5146778;28;8883;-70
2022/05/14 03:12:54;;;;;;;;;7.60;7.60;;;;;;;;5155212;28;11539;-69
2022/05/14 03:15:25;;;;;;;;;5.80;5.60;;;;;;;;5130631;28;8804;-71
2022/05/14 03:17:56;;;;;;;;;17.40;17.20;;;;;;;;5146568;28;8804;-71
2022/05/14 03:20:27;;;;;;;;;5.00;5.00;;;;;;;;5149828;28;8815;-72
2022/05/14 03:23:17;;;;;;;;;5.20;5.20;;;;;;;;5169364;28;8819;-73
2022/05/14 03:25:48;;;;;;;;;9.00;7.20;;;;;;;;5162647;28;8823;-74
2022/05/14 03:28:20;;;;;;;;;4.60;4.60;;;;;;;;5130406;28;8808;-73
2022/05/14 03:30:51;;;;;;;;;6.80;6.80;;;;;;;;5146729;28;8959;-75
2022/05/14 03:33:22;;;;;;;;;6.50;6.50;;;;;;;;5168662;28;8912;-72
2022/05/14 03:35:53;;;;;;;;;3.00;3.00;;;;;;;;5170185;28;8832;-74
2022/05/14 03:38:24;;;;;;;;;5.00;5.00;;;;;;;;5197991;28;8869;-74
2022/05/14 03:41:17;;;;;;;;;4.00;4.00;;;;;;;;5210957;28;8791;-72
2022/05/14 03:43:48;;;;;;;;;4.00;4.00;;;;;;;;5191674;28;8786;-73
2022/05/14 03:46:19;;;;;;;;;4.20;4.20;;;;;;;;5208090;28;8790;-71
2022/05/14 03:48:50;;;;;;;;;8.00;8.00;;;;;;;;5204470;28;8917;-70
2022/05/14 03:51:22;;;;;;;;;7.40;7.40;;;;;;;;5184022;28;8932;-72
2022/05/14 03:53:54;;;;;;;;;6.40;6.40;;;;;;;;5169095;28;8868;-70
2022/05/14 03:56:25;;;;;;;;;73.20;57.00;;;;;;;;5169668;28;8851;-70
2022/05/14 03:58:56;;;;;;;;;10.60;10.60;;;;;;;;5153624;28;8883;-71
2022/05/14 04:01:27;;;;;;;;;5.60;5.60;;;;;;;;5137576;28;8813;-69
2022/05/14 04:03:58;;;;;;;;;5.00;5.00;;;;;;;;5169740;28;8912;-70
2022/05/14 04:06:30;;;;;;;;;6.75;6.75;;;;;;;;5169654;28;8798;-70
2022/05/14 04:09:01;;;;;;;;;4.75;4.75;;;;;;;;5153631;28;8801;-70
2022/05/14 04:11:33;;;;;;;;;6.75;6.75;;;;;;;;5171019;28;8818;-70
2022/05/14 04:14:04;;;;;;;;;5.75;5.75;;;;;;;;5173771;28;8821;-70
2022/05/14 04:16:35;;;;;;;;;137.80;120.40;;;;;;;;5173355;28;8791;-71
2022/05/14 04:19:25;;;;;;;;;7.50;7.50;;;;;;;;5190260;28;9636;-70
2022/05/14 04:21:57;;;;;;;;;5.00;5.00;;;;;;;;5200770;28;8829;-70
2022/05/14 04:24:28;;;;;;;;;5.75;5.75;;;;;;;;5155343;28;8823;-72
2022/05/14 04:26:59;;;;;;;;;9.50;9.50;;;;;;;;5171310;28;9632;-72
2022/05/14 04:29:30;;;;;;;;;8.00;8.00;;;;;;;;5168205;28;8795;-72
2022/05/14 04:32:02;;;;;;;;;13.40;13.40;;;;;;;;5188424;28;8855;-72
2022/05/14 04:34:33;;;;;;;;;7.75;7.75;;;;;;;;5173417;28;8936;-70
2022/05/14 04:37:23;;;;;;;;;6.75;6.75;;;;;;;;5155299;28;8875;-70
2022/05/14 04:40:13;;;;;;;;;7.00;7.00;;;;;;;;5171648;28;8809;-72
2022/05/14 04:42:44;;;;;;;;;6.50;6.50;;;;;;;;5168828;28;8927;-71
2022/05/14 04:45:15;;;;;;;;;7.25;7.25;;;;;;;;5168877;28;9006;-71
2022/05/14 04:47:47;;;;;;;;;6.50;6.50;;;;;;;;5175249;28;8791;-76
2022/05/14 04:50:19;;;;;;;;;6.00;6.00;;;;;;;;5172609;28;8799;-70
2022/05/14 04:52:50;;;;;;;;;5.00;5.00;;;;;;;;5196309;28;8824;-71
2022/05/14 04:55:21;;;;;;;;;5.25;5.25;;;;;;;;5168505;28;8810;-72
2022/05/14 04:58:11;;;;;;;;;3.75;3.75;;;;;;;;5153180;28;8806;-71
2022/05/14 05:00:43;;;;;;;;;4.00;4.00;;;;;;;;5150350;28;8809;-71
2022/05/14 05:03:17;;;;;;;;;4.50;4.50;;;;;;;;5167020;28;8825;-71
2022/05/14 05:05:50;;;;;;;;;3.75;3.75;;;;;;;;5166949;28;8811;-72
2022/05/14 05:08:22;;;;;;;;;3.00;3.00;;;;;;;;5182619;28;8819;-72
2022/05/14 05:10:53;;;;;;;;;3.50;3.50;;;;;;;;5206236;28;8767;-71
2022/05/14 05:13:42;;;;;;;;;2.25;2.25;;;;;;;;5187772;28;8821;-71
2022/05/14 05:16:13;;;;;;;;;1.75;1.75;;;;;;;;5184871;28;8786;-71
2022/05/14 05:18:44;;;;;;;;;2.50;2.50;;;;;;;;5137369;28;8834;-72
2022/05/14 05:21:15;;;;;;;;;3.00;3.00;;;;;;;;5168477;28;8867;-71
2022/05/14 05:23:46;;;;;;;;;3.67;3.67;;;;;;;;5197727;28;8948;-71
2022/05/14 05:26:17;;;;;;;;;3.00;3.00;;;;;;;;5182017;28;8795;-70
2022/05/14 05:28:49;;;;;;;;;3.00;3.00;;;;;;;;5188347;28;8795;-70
2022/05/14 05:31:20;;;;;;;;;0.25;0.25;;;;;;;;5188249;28;9744;-70
2022/05/14 05:33:52;;;;;;;;;4.00;4.00;;;;;;;;5188413;28;9061;-69
2022/05/14 05:36:41;;;;;;;;;3.00;3.00;;;;;;;;5185906;28;8838;-70
2022/05/14 05:39:31;;;;;;;;;2.00;2.00;;;;;;;;5187989;28;9592;-69
2022/05/14 05:42:02;;;;;;;;;3.00;3.00;;;;;;;;5187680;28;8857;-69
2022/05/14 05:44:34;;;;;;;;;2.75;2.75;;;;;;;;5188623;28;8779;-69
2022/05/14 05:47:06;;;;;;;;;2.00;2.00;;;;;;;;5155718;28;9510;-69
2022/05/14 05:49:38;;;;;;;;;1.25;1.25;;;;;;;;5188259;28;8791;-69
2022/05/14 05:52:09;;;;;;;;;2.00;2.00;;;;;;;;5187899;28;8787;-69
2022/05/14 05:57:34;;;;;;;;;6.00;6.00;;;;;;;;5188426;28;8813;-69
2022/05/14 06:00:12;;;;;;;;;3.00;3.00;;;;;;;;5187942;28;8791;-69
2022/05/14 06:02:44;;;;;;;;;2.25;2.25;;;;;;;;5188035;28;8834;-70
2022/05/14 06:05:16;;;;;;;;;1.00;1.00;;;;;;;;5187737;28;8795;-70
2022/05/14 06:07:47;;;;;;;;;2.00;2.00;;;;;;;;5205911;28;8783;-70
2022/05/14 06:10:37;;;;;;;;;4.00;4.00;;;;;;;;5187859;28;8880;-70
2022/05/14 06:13:12;;;;;;;;;5.75;5.75;;;;;;;;5204327;28;8787;-70
2022/05/14 06:15:44;;;;;;;;;3.00;3.00;;;;;;;;5187861;28;9530;-71
2022/05/14 06:18:15;;;;;;;;;3.00;3.00;;;;;;;;5188047;28;8810;-71
2022/05/14 06:20:46;;;;;;;;;2.75;2.75;;;;;;;;5187625;28;8857;-69
2022/05/14 06:23:18;;;;;;;;;4.00;4.00;;;;;;;;5204459;28;8807;-71
2022/05/14 06:25:49;;;;;;;;;6.00;6.00;;;;;;;;5204005;28;8852;-71
2022/05/14 06:28:21;;;;;;;;;2.75;2.75;;;;;;;;5188031;28;8775;-71
2022/05/14 06:30:52;;;;;;;;;3.75;3.75;;;;;;;;5189297;28;8861;-72
2022/05/14 06:33:25;;;;;;;;;4.00;4.00;;;;;;;;5188433;28;9548;-71
2022/05/14 06:35:58;;;;;;;;;3.00;3.00;;;;;;;;5171283;28;8793;-71
2022/05/14 06:38:29;;;;;;;;;3.50;3.50;;;;;;;;5203797;28;8892;-68
2022/05/14 06:41:07;;;;;;;;;3.00;3.00;;;;;;;;5203789;28;9395;-69
2022/05/14 06:43:39;;;;;;;;;3.00;3.00;;;;;;;;5187416;28;8805;-70
2022/05/14 06:46:10;;;;;;;;;3.00;3.00;;;;;;;;5171779;28;8789;-70
2022/05/14 06:49:00;;;;;;;;;3.00;3.00;;;;;;;;5174047;28;8797;-69
2022/05/14 06:51:32;;;;;;;;;2.75;2.75;;;;;;;;5187322;28;9606;-70
2022/05/14 06:54:08;;;;;;;;;4.00;4.00;;;;;;;;5203665;28;8805;-70
2022/05/14 06:56:43;;;;;;;;;4.00;4.00;;;;;;;;5186822;28;8781;-70
2022/05/14 06:59:14;;;;;;;;;4.50;4.50;;;;;;;;5187088;28;8821;-70
2022/05/14 07:01:49;;;;;;;;;3.75;3.75;;;;;;;;5187975;28;8813;-70
2022/05/14 07:07:09;;;;;;;;;2.50;2.50;;;;;;;;5189411;28;9528;-70
2022/05/14 07:09:40;;;;;;;;;2.50;2.50;;;;;;;;5191127;28;8793;-70
2022/05/14 07:12:12;;;;;;;;;1.25;1.25;;;;;;;;5207864;28;8773;-71
2022/05/14 07:14:44;;;;;;;;;1.00;1.00;;;;;;;;5207878;28;8785;-71
2022/05/14 07:17:16;;;;;;;;;1.00;1.00;;;;;;;;5190970;28;8789;-71
2022/05/14 07:20:06;;;;;;;;;0.00;0.00;;;;;;;;5190999;28;8874;-72
2022/05/14 07:22:37;;;;;;;;;3.50;3.50;;;;;;;;5191076;28;9539;-71
2022/05/14 07:25:09;;;;;;;;;3.50;3.50;;;;;;;;5207419;28;8781;-70
2022/05/14 07:27:40;;;;;;;;;2.00;2.00;;;;;;;;5190642;28;8796;-70
2022/05/14 07:30:11;;;;;;;;;2.75;2.75;;;;;;;;5207276;28;8797;-70
2022/05/14 07:32:44;;;;;;;;;2.00;2.00;;;;;;;;5190840;28;8833;-70
2022/05/14 07:35:16;;;;;;;;;2.00;2.00;;;;;;;;5191108;28;8800;-70
2022/05/14 07:37:48;;;;;;;;;5.00;5.00;;;;;;;;5207180;28;8789;-70
2022/05/14 07:40:21;;;;;;;;;4.75;4.75;;;;;;;;5208359;28;8903;-70
2022/05/14 07:42:59;;;;;;;;;5.00;4.00;;;;;;;;5190651;28;8808;-70
2022/05/14 07:45:44;;;;;;;;;3.00;3.00;;;;;;;;5207276;28;8781;-70
2022/05/14 07:48:17;;;;;;;;;5.50;5.50;;;;;;;;5190474;28;9524;-70
2022/05/14 07:51:08;;;;;;;;;3.00;3.00;;;;;;;;5190386;28;8781;-70
2022/05/14 07:53:39;;;;;;;;;4.00;4.00;;;;;;;;5206688;28;8789;-70
2022/05/14 07:56:11;;;;;;;;;7.00;7.00;;;;;;;;5190089;28;8846;-70
2022/05/14 07:58:43;;;;;;;;;4.00;4.00;;;;;;;;5190190;28;9627;-70
2022/05/14 08:01:14;;;;;;;;;2.00;2.00;;;;;;;;5190165;28;8769;-70
2022/05/14 08:03:47;;;;;;;;;2.33;2.33;;;;;;;;5190067;28;8893;-70
2022/05/14 08:06:22;;;;;;;;;5.25;5.25;;;;;;;;5191167;28;9442;-70
2022/05/14 08:08:54;;;;;;;;;4.25;4.25;;;;;;;;5190033;28;8800;-70
2022/05/14 08:11:26;;;;;;;;;3.50;3.50;;;;;;;;5206604;28;8801;-70
2022/05/14 08:13:58;;;;;;;;;7.00;7.00;;;;;;;;5173731;28;9496;-70
2022/05/14 08:16:29;;;;;;;;;6.50;6.00;;;;;;;;5189855;28;8789;-70
2022/05/14 08:19:00;;;;;;;;;8.50;8.50;;;;;;;;5189526;28;8812;-70
2022/05/14 08:24:30;;;;;;;;;5.00;5.00;;;;;;;;5189865;28;8919;-70
2022/05/14 08:27:04;;;;;;;;;2.25;2.25;;;;;;;;5190176;28;8795;-70
2022/05/14 08:29:35;;;;;;;;;3.75;3.75;;;;;;;;5206455;28;8882;-70
2022/05/14 08:32:07;;;;;;;;;1.25;1.25;;;;;;;;5205906;28;8871;-70
2022/05/14 08:34:43;;;;;;;;;2.25;2.25;;;;;;;;5206174;28;8801;-70
2022/05/14 08:37:14;;;;;;;;;1.00;1.00;;;;;;;;5156923;28;8809;-70
2022/05/14 08:39:45;;;;;;;;;2.00;2.00;;;;;;;;5206283;28;8807;-69
2022/05/14 08:42:16;;;;;;;;;5.00;5.00;;;;;;;;5205927;28;8817;-70
2022/05/14 08:44:48;;;;;;;;;5.33;5.33;;;;;;;;5189433;28;8856;-69
2022/05/14 08:47:28;;;;;;;;;6.75;6.75;;;;;;;;5172926;28;9553;-70
2022/05/14 08:50:01;;;;;;;;;2.50;2.50;;;;;;;;5189663;28;8795;-69
2022/05/14 08:52:35;;;;;;;;;2.00;2.00;;;;;;;;5189228;28;8801;-70
2022/05/14 08:55:10;;;;;;;;;4.00;4.00;;;;;;;;5189152;28;9528;-70
2022/05/14 08:57:41;;;;;;;;;0.00;0.00;;;;;;;;5189138;28;8793;-70
2022/05/14 09:00:13;;;;;;;;;3.00;3.00;;;;;;;;5189670;28;9511;-70
2022/05/14 09:02:49;;;;;;;;;4.00;4.00;;;;;;;;5156401;28;8833;-70
2022/05/14 09:05:22;;;;;;;;;5.00;5.00;;;;;;;;5206232;28;8804;-70
2022/05/14 09:07:52;;;;;;;;;3.00;3.00;;;;;;;;5188896;28;8785;-70
2022/05/14 09:10:30;;;;;;;;;1.50;1.50;;;;;;;;5188918;28;8807;-70
2022/05/14 09:13:15;;;;;;;;;2.00;2.00;;;;;;;;5205487;28;8956;-70
2022/05/14 09:15:51;;;;;;;;;6.75;6.75;;;;;;;;5173304;28;8789;-70
2022/05/14 09:18:24;;;;;;;;;0.50;0.50;;;;;;;;5188646;28;8850;-69
2022/05/14 09:20:55;;;;;;;;;2.25;2.25;;;;;;;;5188428;28;8829;-69
2022/05/14 09:23:27;;;;;;;;;3.00;3.00;;;;;;;;5155968;28;8809;-69
2022/05/14 09:26:02;;;;;;;;;4.50;4.50;;;;;;;;5204868;28;8785;-69
2022/05/14 09:28:45;;;;;;;;;1.00;1.00;;;;;;;;5205116;28;8809;-68
2022/05/14 09:31:27;;;;;;;;;2.00;2.00;;;;;;;;5188247;28;9598;-69
2022/05/14 09:34:19;;;;;;;;;1.00;1.00;;;;;;;;5188652;28;8777;-70
2022/05/14 09:36:51;;;;;;;;;3.50;3.50;;;;;;;;5188049;28;9628;-69
2022/05/14 09:39:22;;;;;;;;;1.75;1.75;;;;;;;;5188288;28;9520;-70
2022/05/14 09:41:56;;;;;;;;;1.50;1.50;;;;;;;;5188754;28;8809;-70
2022/05/14 09:44:48;;;;;;;;;2.00;2.00;;;;;;;;5188490;28;8796;-70
2022/05/14 09:47:27;;;;;;;;;2.75;2.75;;;;;;;;5204492;28;8796;-69
2022/05/14 09:50:00;;;;;;;;;4.00;4.00;;;;;;;;5171783;28;8851;-70
2022/05/14 09:52:32;;;;;;;;;1.50;1.50;;;;;;;;5188744;28;8785;-69
2022/05/14 09:55:08;;;;;;;;;1.00;1.00;;;;;;;;5204702;28;8824;-69
2022/05/14 09:57:57;;;;;;;;;1.50;1.50;;;;;;;;5171534;28;8781;-70
2022/05/14 10:00:28;;;;;;;;;3.00;3.00;;;;;;;;5171496;28;8774;-70
2022/05/14 10:03:18;;;;;;;;;3.00;3.00;;;;;;;;5155333;28;8804;-70
2022/05/14 10:06:07;;;;;;;;;16.00;16.00;;;;;;;;5204462;28;8782;-69
2022/05/14 10:08:44;;;;;;;;;4.50;4.50;;;;;;;;5171313;28;8778;-69
2022/05/14 10:11:36;;;;;;;;;3.00;3.00;;;;;;;;5205799;28;8908;-69
2022/05/14 10:14:12;;;;;;;;;3.00;3.00;;;;;;;;5187949;28;8803;-69
2022/05/14 10:16:46;;;;;;;;;1.50;1.50;;;;;;;;5187699;28;8796;-69
2022/05/14 10:19:23;;;;;;;;;4.00;4.00;;;;;;;;5187593;28;8789;-69
2022/05/14 10:22:18;;;;;;;;;2.50;2.50;;;;;;;;5173585;28;8986;-69
2022/05/14 10:28:07;;;;;;;;;3.00;3.00;;;;;;;;5187740;28;8951;-70
2022/05/14 10:30:50;;;;;;;;;4.00;4.00;;;;;;;;5187413;28;8799;-70
2022/05/14 10:33:24;;;;;;;;;5.75;5.75;;;;;;;;5187893;28;8788;-70
2022/05/14 10:36:14;;;;;;;;;3.25;3.00;;;;;;;;5203552;28;8813;-70
2022/05/14 10:38:46;;;;;;;;;4.00;4.00;;;;;;;;5187159;28;8870;-69
2022/05/14 10:41:26;;;;;;;;;6.50;6.50;;;;;;;;5204218;28;8786;-70
2022/05/14 10:43:59;;;;;;;;;3.00;3.00;;;;;;;;5187180;28;8853;-70
2022/05/14 10:46:34;;;;;;;;;1.75;1.75;;;;;;;;5155346;28;8773;-70
2022/05/14 10:49:17;;;;;;;;;1.00;1.00;;;;;;;;5187248;28;8880;-69
2022/05/14 10:51:50;;;;;;;;;0.00;0.00;;;;;;;;5203581;28;8846;-70
2022/05/14 10:54:22;;;;;;;;;2.00;2.00;;;;;;;;5204491;28;8765;-70
2022/05/14 10:57:02;;;;;;;;;4.75;4.75;;;;;;;;5186734;28;9599;-69
2022/05/14 10:59:50;;;;;;;;;2.00;2.00;;;;;;;;5201620;28;8781;-70
2022/05/14 11:02:26;;;;;;;;;3.00;3.00;;;;;;;;5187078;28;8825;-70
2022/05/14 11:04:57;;;;;;;;;11.00;11.00;;;;;;;;5187145;28;8812;-70
2022/05/14 11:07:48;;;;;;;;;3.25;3.25;;;;;;;;5203716;28;8781;-70
2022/05/14 11:10:31;;;;;;;;;4.00;4.00;;;;;;;;5205024;28;9468;-69
2022/05/14 11:13:11;;;;;;;;;3.00;3.00;;;;;;;;5203657;28;8789;-69
2022/05/14 11:15:42;;;;;;;;;3.50;3.50;;;;;;;;5203637;28;8801;-70
2022/05/14 11:18:17;;;;;;;;;5.00;5.00;;;;;;;;5203398;28;8850;-69
2022/05/14 11:20:58;;;;;;;;;21.75;21.50;;;;;;;;5186981;28;8899;-69
2022/05/14 11:23:30;;;;;;;;;5.25;5.25;;;;;;;;5170489;28;8939;-70
2022/05/14 11:26:09;;;;;;;;;18.80;18.80;;;;;;;;5154684;28;8851;-70
2022/05/14 11:28:40;;;;;;;;;11.50;11.50;;;;;;;;5186922;28;8774;-69
2022/05/14 11:31:24;;;;;;;;;6.00;5.50;;;;;;;;5203345;28;9575;-69
2022/05/14 11:33:57;;;;;;;;;7.25;7.25;;;;;;;;5186721;28;8809;-70
2022/05/14 11:36:34;;;;;;;;;5.00;5.00;;;;;;;;5202925;28;8909;-70
2022/05/14 11:39:20;;;;;;;;;3.00;3.00;;;;;;;;5187071;28;9617;-70
2022/05/14 11:41:52;;;;;;;;;1.50;1.50;;;;;;;;5170670;28;8923;-70
2022/05/14 11:44:33;;;;;;;;;0.75;0.75;;;;;;;;5154087;28;8805;-70
2022/05/14 11:47:32;;;;;;;;;3.50;3.50;;;;;;;;5197151;28;8785;-70
2022/05/14 11:50:04;;;;;;;;;2.00;2.00;;;;;;;;5154498;28;9551;-70
2022/05/14 11:52:53;;;;;;;;;2.50;2.50;;;;;;;;5186743;28;8813;-70
2022/05/14 11:55:27;;;;;;;;;7.25;7.25;;;;;;;;5190251;28;8798;-70
2022/05/14 11:58:05;;;;;;;;;3.50;3.50;;;;;;;;5206994;28;9038;-70
2022/05/14 12:00:36;;;;;;;;;8.50;8.50;;;;;;;;5190159;28;8821;-70
2022/05/14 12:03:14;;;;;;;;;4.00;4.00;;;;;;;;5206331;28;8821;-70
2022/05/14 12:05:44;;;;;;;;;4.00;4.00;;;;;;;;5157845;28;8812;-70
2022/05/14 12:08:15;;;;;;;;;4.00;4.00;;;;;;;;5190853;28;8785;-70
2022/05/14 12:10:46;;;;;;;;;4.00;4.00;;;;;;;;5190108;28;9578;-70
2022/05/14 12:13:26;;;;;;;;;4.00;4.00;;;;;;;;5207655;28;10699;-70
2022/05/14 12:15:58;;;;;;;;;19.00;19.00;;;;;;;;5189958;28;9679;-70
2022/05/14 12:18:30;;;;;;;;;11.80;11.80;;;;;;;;5189826;28;8900;-70
2022/05/14 12:21:03;;;;;;;;;10.00;10.00;;;;;;;;5207438;28;8774;-70
2022/05/14 12:23:39;;;;;;;;;5.00;5.00;;;;;;;;5206159;28;8831;-70
2022/05/14 12:26:30;;;;;;;;;6.75;6.75;;;;;;;;5189747;28;8777;-70
2022/05/14 12:29:11;;;;;;;;;11.50;11.50;;;;;;;;5189642;28;8785;-70
2022/05/14 12:34:36;;;;;;;;;4.50;4.50;;;;;;;;5167193;28;8864;-70
2022/05/14 12:37:16;;;;;;;;;8.75;8.75;;;;;;;;5155938;28;8812;-70
2022/05/14 12:39:49;;;;;;;;;5.00;5.00;;;;;;;;5157306;28;8789;-70
2022/05/14 12:42:22;;;;;;;;;9.75;9.50;;;;;;;;5173076;28;8821;-70
2022/05/14 12:44:57;;;;;;;;;6.75;5.75;;;;;;;;5189457;28;8785;-71
2022/05/14 12:47:29;;;;;;;;;23.00;21.00;;;;;;;;5189184;28;8876;-70
2022/05/14 12:50:01;;;;;;;;;9.75;9.75;;;;;;;;5205826;28;8789;-70
2022/05/14 12:52:33;;;;;;;;;15.75;15.75;;;;;;;;5205656;28;9551;-72
2022/05/14 12:55:14;;;;;;;;;10.00;9.75;;;;;;;;5206698;28;8785;-69
2022/05/14 12:57:47;;;;;;;;;21.20;20.60;;;;;;;;5205336;28;8777;-70
2022/05/14 13:00:19;;;;;;;;;6.00;6.00;;;;;;;;5172746;28;8812;-70
2022/05/14 13:03:10;;;;;;;;;2.25;2.25;;;;;;;;5205515;28;8809;-70
2022/05/14 13:05:45;;;;;;;;;2.00;2.00;;;;;;;;5205547;28;8785;-69
2022/05/14 13:08:21;;;;;;;;;5.75;5.75;;;;;;;;5173073;28;8801;-70
2022/05/14 13:10:55;;;;;;;;;4.00;4.00;;;;;;;;5206545;28;8785;-70
2022/05/14 13:13:46;;;;;;;;;7.00;7.00;;;;;;;;5188838;28;8790;-70
2022/05/14 13:16:19;;;;;;;;;5.50;5.50;;;;;;;;5172625;28;8789;-70
2022/05/14 13:18:54;;;;;;;;;8.00;8.00;;;;;;;;5172707;28;8781;-70
2022/05/14 13:21:27;;;;;;;;;6.50;6.50;;;;;;;;5188702;28;8823;-70
2022/05/14 13:24:00;;;;;;;;;5.50;5.50;;;;;;;;5201492;28;8836;-70
2022/05/14 13:26:32;;;;;;;;;6.50;6.50;;;;;;;;5153572;28;8803;-69
2022/05/14 13:29:12;;;;;;;;;3.75;3.75;;;;;;;;5172202;28;8789;-70
2022/05/14 13:31:44;;;;;;;;;14.40;14.40;;;;;;;;5173183;28;8836;-70
2022/05/14 13:37:23;;;;;;;;;4.00;4.00;;;;;;;;5167736;28;8792;-70
2022/05/14 13:39:55;;;;;;;;;4.00;4.00;;;;;;;;5188355;28;9506;-70
2022/05/14 13:42:32;;;;;;;;;7.60;7.60;;;;;;;;5167259;28;9524;-70
2022/05/14 13:45:09;;;;;;;;;11.00;10.25;;;;;;;;5168053;28;8765;-69
2022/05/14 13:48:00;;;;;;;;;15.60;15.60;;;;;;;;5170860;28;8776;-71
2022/05/14 13:50:39;;;;;;;;;6.00;6.00;;;;;;;;5168155;28;8787;-70
2022/05/14 13:53:21;;;;;;;;;7.75;7.75;;;;;;;;5135745;28;8911;-70
2022/05/14 13:56:00;;;;;;;;;8.00;8.00;;;;;;;;5167635;28;8777;-69
2022/05/14 13:58:33;;;;;;;;;16.80;16.60;;;;;;;;5175098;28;8791;-70
2022/05/14 14:01:06;;;;;;;;;10.20;10.20;;;;;;;;5186567;28;8925;-72
2022/05/14 14:03:56;;;;;;;;;12.25;12.25;;;;;;;;5168537;28;8833;-71
2022/05/14 14:06:31;;;;;;;;;12.00;12.00;;;;;;;;5159570;28;8942;-71
2022/05/14 14:09:03;;;;;;;;;7.50;7.50;;;;;;;;5189598;28;8803;-71
2022/05/14 14:11:34;;;;;;;;;8.00;7.75;;;;;;;;5191821;28;8798;-71
2022/05/14 14:14:06;;;;;;;;;16.25;16.25;;;;;;;;5225650;28;8814;-72
2022/05/14 14:16:37;;;;;;;;;33.20;31.60;;;;;;;;5174159;28;8808;-71
2022/05/14 14:19:27;;;;;;;;;15.40;15.40;;;;;;;;5194387;28;8808;-71
2022/05/14 14:21:59;;;;;;;;;6.00;6.00;;;;;;;;5189864;28;8857;-71
2022/05/14 14:24:32;;;;;;;;;10.20;9.80;;;;;;;;5175237;28;8914;-71
2022/05/14 14:27:04;;;;;;;;;6.00;6.00;;;;;;;;5207831;28;8885;-69
2022/05/14 14:29:35;;;;;;;;;5.75;5.75;;;;;;;;5191388;28;8958;-70
2022/05/14 14:32:06;;;;;;;;;4.00;4.00;;;;;;;;5207310;28;8967;-71
2022/05/14 14:34:38;;;;;;;;;5.00;5.00;;;;;;;;5225000;28;12216;-71
2022/05/14 14:37:09;;;;;;;;;4.25;4.25;;;;;;;;5225152;28;8752;-71
2022/05/14 14:39:58;;;;;;;;;4.00;4.00;;;;;;;;5210601;28;8827;-72
2022/05/14 14:42:29;;;;;;;;;3.00;3.00;;;;;;;;5222936;28;8796;-71
2022/05/14 14:45:00;;;;;;;;;3.67;3.67;;;;;;;;5187289;28;8770;-71
2022/05/14 14:47:32;;;;;;;;;3.00;3.00;;;;;;;;5187100;28;10980;-72
2022/05/14 14:50:23;;;;;;;;;4.50;4.25;;;;;;;;5173574;28;8786;-71
2022/05/14 14:53:12;;;;;;;;;6.75;6.00;;;;;;;;5205803;28;9534;-71
2022/05/14 14:55:43;;;;;;;;;6.25;6.25;;;;;;;;5207391;28;8800;-70
2022/05/14 14:58:14;;;;;;;;;5.00;5.00;;;;;;;;5190052;28;8849;-71
2022/05/14 15:00:48;;;;;;;;;4.00;4.00;;;;;;;;5170724;28;8789;-70
2022/05/14 15:03:25;;;;;;;;;4.00;4.00;;;;;;;;5187526;28;8806;-71
2022/05/14 15:05:58;;;;;;;;;4.25;4.25;;;;;;;;5177400;28;8848;-70
2022/05/14 15:08:32;;;;;;;;;3.50;3.50;;;;;;;;5174732;28;8788;-70
2022/05/14 15:11:21;;;;;;;;;3.00;3.00;;;;;;;;5209744;28;8794;-71
2022/05/14 15:13:54;;;;;;;;;2.00;2.00;;;;;;;;5166138;28;9556;-71
2022/05/14 15:16:25;;;;;;;;;1.00;1.00;;;;;;;;5170728;28;8797;-72
2022/05/14 15:18:56;;;;;;;;;1.50;1.50;;;;;;;;5166260;28;8875;-72
2022/05/14 15:21:27;;;;;;;;;5.00;5.00;;;;;;;;5166439;28;8777;-72
2022/05/14 15:23:58;;;;;;;;;0.50;0.50;;;;;;;;5155741;28;8864;-70
2022/05/14 15:26:29;;;;;;;;;0.25;0.25;;;;;;;;5171032;28;8790;-72
2022/05/14 15:29:00;;;;;;;;;0.67;0.67;;;;;;;;5174169;28;8805;-72
2022/05/14 15:31:40;;;;;;;;;2.00;2.00;;;;;;;;5186092;28;11645;-72
2022/05/14 15:34:11;;;;;;;;;5.00;5.00;;;;;;;;5168476;28;8782;-70
2022/05/14 15:36:42;;;;;;;;;5.67;5.67;;;;;;;;5208388;28;9554;-70
2022/05/14 15:39:12;;;;;;;;;4.67;4.67;;;;;;;;5174464;28;11393;-71
2022/05/14 15:41:45;;;;;;;;;0.75;0.75;;;;;;;;5151314;28;8795;-70
2022/05/14 15:44:19;;;;;;;;;0.25;0.25;;;;;;;;5168328;28;8817;-69
2022/05/14 15:46:53;;;;;;;;;2.00;2.00;;;;;;;;5210420;28;8781;-70
2022/05/14 15:49:25;;;;;;;;;21.00;21.00;;;;;;;;5184896;28;8793;-68
2022/05/14 15:51:57;;;;;;;;;4.25;4.25;;;;;;;;5153836;28;8840;-69
2022/05/14 15:54:29;;;;;;;;;3.00;3.00;;;;;;;;5185310;28;8823;-68
2022/05/14 15:57:00;;;;;;;;;2.00;2.00;;;;;;;;5206253;28;8793;-68
2022/05/14 15:59:32;;;;;;;;;1.50;1.50;;;;;;;;5172890;28;8812;-68